KCNW/CNW METAR and TAF weather

Enter ICAO airport designator
Station Type Date Time Source
KCNW METAR 2022/06/28 14:55 UTC NOAA

KCNW 281455Z 18006KT 7SM BKN043 30/19 A3017


Station Type Date Time Source
KCNW Decoded METAR 2022/06/28 14:55 UTC NOAA

Station name not available
Jun 28, 2022 - 10:55 AM EDT / 2022.06.28 1455 UTC
Wind: from the S (180 degrees) at 7 MPH (6 KT):0
Visibility: 7 mile(s):0
Sky conditions: mostly cloudy
Temperature: 86 F (30 C)
Dew Point: 66 F (19 C)
Relative Humidity: 51%
Pressure (altimeter): 30.17 in. Hg (1021 hPa)
ob: KCNW 281455Z 18006KT 7SM BKN043 30/19 A3017
cycle: 15

Station Type Date Time Source
KCNW TAF UTC NOAA

Error!

Example: see airport list